createdAt,value
2022-10-30T00:03:35.773Z,102046.31
2022-10-30T00:06:09.939Z,102043.66
2022-10-30T00:08:37.689Z,102044.53
2022-10-30T00:11:14.950Z,102042.81
2022-10-30T00:13:48.426Z,102044.56
2022-10-30T00:16:19.319Z,102041.00
2022-10-30T00:18:46.937Z,102044.53
2022-10-30T00:21:20.482Z,102045.44
2022-10-30T00:24:04.216Z,102043.66
2022-10-30T00:26:34.847Z,102039.16
2022-10-30T00:29:23.733Z,102047.06
2022-10-30T00:31:51.695Z,102034.84
2022-10-30T00:34:19.748Z,102035.66
2022-10-30T00:36:47.288Z,102029.50
2022-10-30T00:39:14.632Z,102038.22
2022-10-30T00:41:42.411Z,102031.97
2022-10-30T00:44:47.374Z,102035.53
2022-10-30T00:47:26.090Z,102035.41
2022-10-30T00:50:00.851Z,102036.28
2022-10-30T00:52:30.341Z,102027.44
2022-10-30T00:55:11.330Z,102033.59
2022-10-30T00:57:39.543Z,102026.63
2022-10-30T01:00:11.667Z,102024.78
2022-10-30T01:02:48.643Z,102023.06
2022-10-30T01:05:26.733Z,102019.56
2022-10-30T01:07:56.822Z,102016.91
2022-10-30T01:10:29.548Z,102024.72
2022-10-30T01:13:05.164Z,102023.88
2022-10-30T01:15:46.320Z,102019.41
2022-10-30T01:18:39.357Z,102011.56
2022-10-30T01:21:16.372Z,102014.19
2022-10-30T01:24:10.947Z,102017.78
2022-10-30T01:26:51.104Z,102013.31
2022-10-30T01:29:21.244Z,102017.75
2022-10-30T01:32:21.266Z,102014.25
2022-10-30T01:34:57.650Z,102008.03
2022-10-30T01:37:47.639Z,102014.19
2022-10-30T01:40:20.413Z,102001.03
2022-10-30T01:42:56.565Z,102003.72
2022-10-30T01:45:52.664Z,102006.28
2022-10-30T01:48:44.801Z,102012.44
2022-10-30T01:51:53.563Z,102014.91
2022-10-30T01:54:45.842Z,102009.66
2022-10-30T01:57:39.858Z,102015.72
2022-10-30T02:00:16.319Z,102007.88
2022-10-30T02:02:56.631Z,102007.91
2022-10-30T02:05:46.100Z,101999.03
2022-10-30T02:08:16.604Z,102007.81
2022-10-30T02:10:47.152Z,102006.16
2022-10-30T02:13:18.638Z,102005.91
2022-10-30T02:15:50.824Z,102006.75
2022-10-30T02:18:31.371Z,101998.72
2022-10-30T02:21:03.373Z,101998.75
2022-10-30T02:23:35.763Z,101990.81
2022-10-30T02:26:03.330Z,101995.38
2022-10-30T02:28:31.356Z,101989.97
2022-10-30T02:30:58.789Z,102000.59
2022-10-30T02:33:25.993Z,101995.22
2022-10-30T02:35:54.833Z,101992.44
2022-10-30T02:38:22.147Z,101987.31
2022-10-30T02:40:54.193Z,101983.84
2022-10-30T02:43:23.894Z,101991.81
2022-10-30T02:45:55.712Z,101987.19
2022-10-30T02:48:23.236Z,101983.84
2022-10-30T02:50:52.676Z,101984.50
2022-10-30T02:53:27.953Z,101981.84
2022-10-30T02:56:03.659Z,101982.94
2022-10-30T02:58:35.826Z,101988.03
2022-10-30T03:01:15.974Z,101985.19
2022-10-30T03:03:47.128Z,101990.28
2022-10-30T03:06:17.276Z,101984.34
2022-10-30T03:08:44.823Z,101986.63
2022-10-30T03:11:20.106Z,101992.69
2022-10-30T03:13:48.691Z,101986.63
2022-10-30T03:16:29.769Z,101982.38
2022-10-30T03:19:15.157Z,101983.97
2022-10-30T03:21:42.341Z,101979.59
2022-10-30T03:24:11.478Z,101982.41
2022-10-30T03:26:40.901Z,101977.13
2022-10-30T03:29:10.648Z,101975.25
2022-10-30T03:31:37.902Z,101975.28
2022-10-30T03:34:19.184Z,101963.19
2022-10-30T03:36:49.530Z,101964.94
2022-10-30T03:39:19.692Z,101957.09
2022-10-30T03:41:49.977Z,101961.50
2022-10-30T03:44:18.355Z,101965.03
2022-10-30T03:46:47.887Z,101968.63
2022-10-30T03:49:28.750Z,101971.81
2022-10-30T03:52:05.085Z,101972.66
2022-10-30T03:54:34.300Z,101971.59
2022-10-30T03:57:06.842Z,101972.63
2022-10-30T04:00:19.736Z,101980.53
2022-10-30T04:02:59.265Z,101976.09
2022-10-30T04:05:30.744Z,101983.78
2022-10-30T04:08:01.877Z,101984.56
2022-10-30T04:10:32.495Z,101986.31
2022-10-30T04:13:06.725Z,101988.81
2022-10-30T04:15:37.956Z,101989.91
2022-10-30T04:18:06.436Z,101983.81
2022-10-30T04:20:35.456Z,101986.41
2022-10-30T04:23:05.876Z,101980.28
2022-10-30T04:25:35.467Z,101981.97
2022-10-30T04:28:10.742Z,101984.69
2022-10-30T04:30:38.940Z,101994.34
2022-10-30T04:33:09.165Z,101991.50
2022-10-30T04:35:38.225Z,101992.41
2022-10-30T04:38:14.673Z,101982.50
2022-10-30T04:40:44.997Z,101990.56
2022-10-30T04:43:14.747Z,101978.38
2022-10-30T04:45:43.740Z,101985.31
2022-10-30T04:48:17.769Z,101984.25
2022-10-30T04:50:47.075Z,101980.06
2022-10-30T04:53:22.563Z,101979.13
2022-10-30T04:55:56.438Z,101972.88
2022-10-30T04:58:25.224Z,101977.31
2022-10-30T05:01:05.693Z,101968.47
2022-10-30T05:03:39.297Z,101970.22
2022-10-30T05:06:33.477Z,101970.06
2022-10-30T05:09:03.894Z,101974.47
2022-10-30T05:11:38.072Z,101969.69
2022-10-30T05:14:05.465Z,101968.16
2022-10-30T05:16:33.082Z,101966.50
2022-10-30T05:19:08.386Z,101968.34
2022-10-30T05:21:35.619Z,101960.25
2022-10-30T05:24:07.975Z,101970.72
2022-10-30T05:26:42.263Z,101973.53
2022-10-30T05:29:09.517Z,101971.38
2022-10-30T05:31:37.019Z,101966.03
2022-10-30T05:34:35.842Z,101969.47
2022-10-30T05:37:06.455Z,101963.13
2022-10-30T05:39:34.120Z,101967.53
2022-10-30T05:42:11.262Z,101963.00
2022-10-30T05:45:00.429Z,101964.78
2022-10-30T05:47:36.976Z,101965.63
2022-10-30T05:50:11.901Z,101971.94
2022-10-30T05:52:49.586Z,101966.50
2022-10-30T05:55:19.735Z,101968.72
2022-10-30T05:58:15.609Z,101966.22
2022-10-30T06:00:45.794Z,101964.22
2022-10-30T06:03:17.859Z,101968.66
2022-10-30T06:05:48.238Z,101967.72
2022-10-30T06:08:25.893Z,101965.16
2022-10-30T06:11:11.466Z,101968.88
2022-10-30T06:13:51.193Z,101967.13
2022-10-30T06:16:40.363Z,101961.06
2022-10-30T06:19:37.628Z,101963.81
2022-10-30T06:22:28.229Z,101963.00
2022-10-30T06:25:10.953Z,101971.69
2022-10-30T06:28:16.782Z,101978.72
2022-10-30T06:30:48.144Z,101969.88
2022-10-30T06:33:32.394Z,101972.53
2022-10-30T06:36:01.680Z,101977.44
2022-10-30T06:38:47.318Z,101969.25
2022-10-30T06:41:38.703Z,101973.59
2022-10-30T06:44:49.233Z,101973.94
2022-10-30T06:47:23.374Z,101979.31
2022-10-30T06:49:57.019Z,101972.28
2022-10-30T06:52:42.459Z,101981.06
2022-10-30T06:55:25.172Z,101977.59
2022-10-30T06:58:28.740Z,101982.78
2022-10-30T07:01:20.083Z,101984.69
2022-10-30T07:04:09.615Z,101989.78
2022-10-30T07:06:45.905Z,101988.25
2022-10-30T07:09:17.484Z,101987.53
2022-10-30T07:11:56.940Z,101986.47
2022-10-30T07:14:48.043Z,101986.56
2022-10-30T07:17:34.968Z,101988.53
2022-10-30T07:23:08.160Z,102003.63
2022-10-30T07:25:42.127Z,102003.75
2022-10-30T07:28:37.263Z,102003.78
2022-10-30T07:31:41.967Z,102011.69
2022-10-30T07:34:50.773Z,102009.25
2022-10-30T07:38:10.829Z,102011.88
2022-10-30T07:40:59.031Z,102018.28
2022-10-30T07:43:49.117Z,102016.47
2022-10-30T07:46:44.378Z,102025.22
2022-10-30T07:49:40.998Z,102023.59
2022-10-30T07:52:19.269Z,102025.66
2022-10-30T07:55:20.733Z,102027.25
2022-10-30T07:57:51.257Z,102033.50
2022-10-30T08:00:30.854Z,102035.19
2022-10-30T08:03:37.512Z,102035.41
2022-10-30T08:06:23.258Z,102036.22
2022-10-30T08:08:57.166Z,102040.84
2022-10-30T08:11:36.729Z,102035.34
2022-10-30T08:14:10.016Z,102038.03
2022-10-30T08:16:43.832Z,102039.06
2022-10-30T08:19:18.959Z,102037.06
2022-10-30T08:21:53.789Z,102039.00
2022-10-30T08:24:31.609Z,102040.59
2022-10-30T08:27:05.538Z,102044.31
2022-10-30T08:29:42.736Z,102038.19
2022-10-30T08:32:17.462Z,102048.63
2022-10-30T08:35:12.626Z,102051.25
2022-10-30T08:37:48.435Z,102049.63
2022-10-30T08:40:22.234Z,102049.63
2022-10-30T08:43:08.798Z,102053.28
2022-10-30T08:45:52.952Z,102043.78
2022-10-30T08:48:28.044Z,102044.84
2022-10-30T08:51:04.822Z,102050.19
2022-10-30T08:53:41.479Z,102051.13
2022-10-30T08:56:20.846Z,102037.13
2022-10-30T08:59:13.748Z,102044.25
2022-10-30T09:01:54.385Z,102048.75
2022-10-30T09:04:29.380Z,102043.03
2022-10-30T09:07:15.725Z,102045.94
2022-10-30T09:10:10.995Z,102046.09
2022-10-30T09:12:39.287Z,102045.25
2022-10-30T09:15:15.343Z,102040.88
2022-10-30T09:18:02.448Z,102038.31
2022-10-30T09:20:39.310Z,102035.66
2022-10-30T09:23:12.724Z,102040.09
2022-10-30T09:25:47.563Z,102036.56
2022-10-30T09:28:39.791Z,102043.59
2022-10-30T09:31:48.237Z,102039.22
2022-10-30T09:34:31.172Z,102045.38
2022-10-30T09:37:16.858Z,102044.50
2022-10-30T09:40:01.159Z,102050.66
2022-10-30T09:43:01.679Z,102055.06
2022-10-30T09:46:01.196Z,102048.03
2022-10-30T09:48:53.145Z,102046.16
2022-10-30T09:51:32.116Z,102043.50
2022-10-30T09:54:20.634Z,102045.06
2022-10-30T09:57:14.749Z,102042.97
2022-10-30T10:00:10.607Z,102035.81
2022-10-30T10:03:26.226Z,102049.66
2022-10-30T10:06:18.874Z,102054.91
2022-10-30T10:09:18.679Z,102046.88
2022-10-30T10:11:56.050Z,102057.66
2022-10-30T10:14:31.450Z,102049.84
2022-10-30T10:17:02.087Z,102050.69
2022-10-30T10:19:36.163Z,102057.03
2022-10-30T10:22:14.897Z,102058.06
2022-10-30T10:24:47.735Z,102058.09
2022-10-30T10:28:01.462Z,102059.03
2022-10-30T10:30:48.311Z,102055.44
2022-10-30T10:33:35.445Z,102052.00
2022-10-30T10:36:25.782Z,102051.97
2022-10-30T10:39:17.742Z,102049.19
2022-10-30T10:42:14.410Z,102054.31
2022-10-30T10:44:54.334Z,102049.66
2022-10-30T10:48:04.390Z,102049.31
2022-10-30T10:50:42.252Z,102047.25
2022-10-30T10:53:36.545Z,102049.00
2022-10-30T10:56:03.721Z,102051.72
2022-10-30T10:58:57.243Z,102048.66
2022-10-30T11:01:40.330Z,102035.19
2022-10-30T11:04:13.329Z,102040.84
2022-10-30T11:06:45.240Z,102041.06
2022-10-30T11:09:20.256Z,102029.34
2022-10-30T11:11:52.854Z,102029.97
2022-10-30T11:14:39.151Z,102032.38
2022-10-30T11:17:26.049Z,102029.34
2022-10-30T11:20:03.354Z,102026.91
2022-10-30T11:22:40.435Z,102018.91
2022-10-30T11:25:28.641Z,102021.59
2022-10-30T11:28:04.902Z,102020.88
2022-10-30T11:30:35.307Z,102014.09
2022-10-30T11:33:31.006Z,102012.84
2022-10-30T11:36:15.624Z,102005.72
2022-10-30T11:38:46.061Z,101999.72
2022-10-30T11:41:18.308Z,102002.38
2022-10-30T11:44:01.298Z,102001.63
2022-10-30T11:46:42.830Z,101990.44
2022-10-30T11:49:36.450Z,101987.44
2022-10-30T11:52:10.970Z,101975.44
2022-10-30T11:55:03.397Z,101983.72
2022-10-30T11:57:36.917Z,101982.84
2022-10-30T12:00:23.037Z,101985.53
2022-10-30T12:04:01.007Z,101981.41
2022-10-30T12:06:59.365Z,101979.97
2022-10-30T12:09:59.520Z,101979.34
2022-10-30T12:13:07.821Z,101972.16
2022-10-30T12:15:55.455Z,101969.09
2022-10-30T12:21:55.160Z,101970.84
2022-10-30T12:24:42.511Z,101965.09
2022-10-30T12:27:23.547Z,101960.53
2022-10-30T12:30:22.714Z,101967.31
2022-10-30T12:33:18.740Z,101964.38
2022-10-30T12:36:02.274Z,101955.50
2022-10-30T12:39:09.061Z,101962.41
2022-10-30T12:42:07.700Z,101954.69
2022-10-30T12:45:15.257Z,101946.53
2022-10-30T12:48:02.523Z,101941.94
2022-10-30T12:51:12.473Z,101931.06
2022-10-30T12:53:58.880Z,101926.22
2022-10-30T12:56:59.042Z,101929.59
2022-10-30T12:59:55.401Z,101927.75
2022-10-30T13:02:42.691Z,101921.63
2022-10-30T13:05:31.088Z,101923.09
2022-10-30T13:08:37.045Z,101925.41
2022-10-30T13:11:40.032Z,101921.78
2022-10-30T13:14:30.878Z,101911.50
2022-10-30T13:17:14.927Z,101911.53
2022-10-30T13:19:55.641Z,101913.16
2022-10-30T13:22:42.249Z,101899.50
2022-10-30T13:25:44.062Z,101894.22
2022-10-30T13:28:31.069Z,101899.94
2022-10-30T13:31:41.647Z,101902.66
2022-10-30T13:34:34.601Z,101894.94
2022-10-30T13:37:38.454Z,101897.13
2022-10-30T13:40:46.398Z,101890.16
2022-10-30T13:43:42.713Z,101895.31
2022-10-30T13:46:55.486Z,101893.09
2022-10-30T13:49:52.252Z,101904.34
2022-10-30T13:52:55.261Z,101904.81
2022-10-30T13:55:55.219Z,101896.50
2022-10-30T13:59:13.818Z,101893.56
2022-10-30T14:02:30.071Z,101892.06
2022-10-30T14:05:42.969Z,101896.44
2022-10-30T14:08:54.981Z,101896.50
2022-10-30T14:11:31.912Z,101893.25
2022-10-30T14:14:31.431Z,101890.03
2022-10-30T14:17:18.228Z,101899.34
2022-10-30T14:20:18.433Z,101893.56
2022-10-30T14:23:13.619Z,101887.00
2022-10-30T14:25:45.273Z,101883.94
2022-10-30T14:29:18.548Z,101883.06
2022-10-30T14:32:35.130Z,101883.59
2022-10-30T14:39:01.453Z,101877.13
2022-10-30T14:42:24.721Z,101880.53
2022-10-30T14:49:20.398Z,101879.03
2022-10-30T14:52:15.739Z,101868.09
2022-10-30T14:55:31.983Z,101868.19
2022-10-30T14:58:35.902Z,101863.16
2022-10-30T15:01:53.912Z,101855.78
2022-10-30T15:04:58.066Z,101857.19
2022-10-30T15:08:27.221Z,101872.75
2022-10-30T15:14:58.190Z,101880.69
2022-10-30T15:18:46.696Z,101878.66
2022-10-30T15:21:52.552Z,101878.91
2022-10-30T15:24:47.292Z,101883.56
2022-10-30T15:31:16.950Z,101885.50
2022-10-30T15:34:05.117Z,101887.06
2022-10-30T15:37:14.211Z,101887.50
2022-10-30T15:40:28.515Z,101887.44
2022-10-30T15:43:48.385Z,101890.59
2022-10-30T15:47:27.544Z,101895.00
2022-10-30T15:50:50.648Z,101894.09
2022-10-30T15:54:13.045Z,101896.00
2022-10-30T16:04:15.508Z,101888.59
2022-10-30T16:07:55.620Z,101891.13
2022-10-30T16:11:30.257Z,101898.53
2022-10-30T16:14:47.436Z,101894.19
2022-10-30T16:21:54.394Z,101903.28
2022-10-30T16:25:05.395Z,101896.19
2022-10-30T16:27:57.430Z,101905.91
2022-10-30T16:30:56.069Z,101896.97
2022-10-30T16:33:46.681Z,101897.94
2022-10-30T16:36:24.216Z,101898.06
2022-10-30T16:39:18.785Z,101891.97
2022-10-30T16:42:00.810Z,101891.13
2022-10-30T16:44:51.520Z,101886.75
2022-10-30T16:47:29.335Z,101895.72
2022-10-30T16:50:15.971Z,101896.44
2022-10-30T16:53:35.990Z,101906.28
2022-10-30T16:56:25.012Z,101896.63
2022-10-30T16:59:11.263Z,101900.09
2022-10-30T17:02:34.586Z,101904.56
2022-10-30T17:05:20.125Z,101905.56
2022-10-30T17:08:40.917Z,101906.53
2022-10-30T17:11:50.781Z,101905.72
2022-10-30T17:14:53.250Z,101903.00
2022-10-30T17:17:38.875Z,101911.09
2022-10-30T17:20:31.174Z,101915.41
2022-10-30T17:23:18.908Z,101921.59
2022-10-30T17:25:50.054Z,101926.94
2022-10-30T17:28:50.938Z,101924.28
2022-10-30T17:31:50.924Z,101917.34
2022-10-30T17:34:43.613Z,101926.09
2022-10-30T17:37:43.951Z,101925.28
2022-10-30T17:40:53.973Z,101929.69
2022-10-30T17:47:48.223Z,101931.41
2022-10-30T17:51:12.046Z,101934.13
2022-10-30T17:54:46.361Z,101943.78
2022-10-30T17:57:51.835Z,101953.50
2022-10-30T18:00:36.057Z,101945.56
2022-10-30T18:03:26.183Z,101956.16
2022-10-30T18:06:09.470Z,101965.00
2022-10-30T18:08:56.522Z,101963.22
2022-10-30T18:11:36.046Z,101966.81
2022-10-30T18:14:28.070Z,101955.34
2022-10-30T18:17:30.132Z,101963.31
2022-10-30T18:20:38.816Z,101966.81
2022-10-30T18:24:00.688Z,101967.69
2022-10-30T18:27:17.953Z,101969.44
2022-10-30T18:30:37.431Z,101975.63
2022-10-30T18:33:35.782Z,101968.59
2022-10-30T18:36:35.248Z,101977.44
2022-10-30T18:39:56.096Z,101979.25
2022-10-30T18:42:41.895Z,101979.25
2022-10-30T18:49:09.251Z,101988.06
2022-10-30T18:52:09.757Z,101992.47
2022-10-30T18:54:54.302Z,101988.09
2022-10-30T18:57:54.363Z,101989.81
2022-10-30T19:04:27.830Z,101986.31
2022-10-30T19:07:13.307Z,101988.94
2022-10-30T19:10:11.541Z,101976.66
2022-10-30T19:13:15.403Z,101990.75
2022-10-30T19:16:41.333Z,102002.22
2022-10-30T19:19:35.361Z,102002.19
2022-10-30T19:22:31.843Z,101997.78
2022-10-30T19:25:28.725Z,102001.31
2022-10-30T19:28:21.716Z,102000.44
2022-10-30T19:31:15.482Z,101996.03
2022-10-30T19:34:17.912Z,101995.16
2022-10-30T19:37:11.849Z,101991.63
2022-10-30T19:40:21.828Z,101991.63
2022-10-30T19:43:20.606Z,101991.63
2022-10-30T19:46:46.108Z,101993.38
2022-10-30T19:50:09.238Z,102001.31
2022-10-30T19:56:41.005Z,101989.88
2022-10-30T19:59:44.275Z,101989.91
2022-10-30T20:03:15.293Z,101993.41
2022-10-30T20:05:56.238Z,101994.31
2022-10-30T20:08:43.197Z,101992.53
2022-10-30T20:11:17.207Z,101983.72
2022-10-30T20:13:53.833Z,101981.97
2022-10-30T20:16:33.346Z,101987.25
2022-10-30T20:19:32.501Z,101989.88
2022-10-30T20:22:07.389Z,102002.22
2022-10-30T20:25:04.199Z,102004.84
2022-10-30T20:28:25.958Z,101999.56
2022-10-30T20:31:11.128Z,101999.59
2022-10-30T20:33:58.190Z,102001.31
2022-10-30T20:36:37.682Z,102002.22
2022-10-30T20:39:14.094Z,101991.63
2022-10-30T20:41:58.977Z,101987.25
2022-10-30T20:44:32.382Z,101988.13
2022-10-30T20:47:18.024Z,101974.91
2022-10-30T20:50:04.587Z,101968.75
2022-10-30T20:52:54.413Z,101966.97
2022-10-30T20:55:37.682Z,101963.44
2022-10-30T20:58:24.690Z,101970.50
2022-10-30T21:01:04.991Z,101974.91
2022-10-30T21:03:56.508Z,101964.34
2022-10-30T21:06:49.492Z,101966.97
2022-10-30T21:09:35.533Z,101966.09
2022-10-30T21:12:12.331Z,101976.66
2022-10-30T21:15:03.066Z,101969.63
2022-10-30T21:17:37.811Z,101981.94
2022-10-30T21:20:27.426Z,101985.47
2022-10-30T21:26:37.158Z,101974.84
2022-10-30T21:29:36.794Z,101975.72
2022-10-30T21:32:35.479Z,101971.31
2022-10-30T21:35:37.718Z,101966.94
2022-10-30T21:38:17.389Z,101962.53
2022-10-30T21:41:05.626Z,101955.47
2022-10-30T21:43:41.050Z,101967.81
2022-10-30T21:46:30.152Z,101979.25
2022-10-30T21:49:22.963Z,101980.13
2022-10-30T21:52:02.135Z,101980.13
2022-10-30T21:54:52.631Z,101975.72
2022-10-30T21:57:24.657Z,101981.03
2022-10-30T22:00:01.513Z,101977.50
2022-10-30T22:02:53.510Z,101969.56
2022-10-30T22:05:33.018Z,101972.19
2022-10-30T22:08:13.208Z,101964.28
2022-10-30T22:10:56.446Z,101964.28
2022-10-30T22:13:30.873Z,101973.06
2022-10-30T22:16:15.908Z,101982.75
2022-10-30T22:19:00.157Z,101987.16
2022-10-30T22:21:42.855Z,101987.16
2022-10-30T22:24:23.071Z,101979.25
2022-10-30T22:27:15.434Z,101971.31
2022-10-30T22:29:46.728Z,101971.31
2022-10-30T22:32:34.922Z,101975.69
2022-10-30T22:35:14.570Z,101988.03
2022-10-30T22:38:04.019Z,101981.84
2022-10-30T22:40:50.588Z,101988.03
2022-10-30T22:43:33.505Z,101986.25
2022-10-30T22:46:23.723Z,101984.50
2022-10-30T22:49:12.602Z,101975.63
2022-10-30T22:51:45.505Z,101980.94
2022-10-30T22:54:19.970Z,101975.66
2022-10-30T22:56:53.044Z,101977.41
2022-10-30T22:59:28.482Z,101983.56
2022-10-30T23:01:57.545Z,101976.50
2022-10-30T23:04:25.452Z,101990.59
2022-10-30T23:09:43.458Z,101979.03
2022-10-30T23:12:17.490Z,101992.22
2022-10-30T23:14:48.048Z,101986.06
2022-10-30T23:17:15.420Z,101991.34
2022-10-30T23:19:42.893Z,101971.91
2022-10-30T23:22:10.792Z,101934.97
2022-10-30T23:24:44.184Z,101936.69
2022-10-30T23:27:12.166Z,101979.81
2022-10-30T23:29:44.388Z,101973.53
2022-10-30T23:32:23.185Z,101981.53
2022-10-30T23:34:50.871Z,101983.34
2022-10-30T23:37:19.086Z,101979.81
2022-10-30T23:39:49.509Z,101975.41
2022-10-30T23:42:22.075Z,101980.75
2022-10-30T23:44:51.647Z,101968.44
2022-10-30T23:47:22.294Z,101967.59
2022-10-30T23:49:49.734Z,101969.38
2022-10-30T23:52:17.200Z,101966.75
2022-10-30T23:54:47.368Z,101960.66
2022-10-30T23:57:19.222Z,101960.66
2022-10-30T23:59:50.648Z,101947.41
